South Wellfleet, Massachusetts
Current Conditions -  °F | °C
As of 12:35 AM on Saturday 25 Oct 2014 (Local Time) from KPVC Reporting Station
Overcast Overcast  
Wind Chill: 50°   Ceiling: 4400
Heat Index: 50°   Visibility: 10mi
Dew Point: -2°   Wind: 12mph
Humidity: 12%   Direction: 340°NNW
Pressure: 29.73"   Gusts: 17mph
Location:  41.92°N, 70°W
Report Text: KPVC 250435Z 34010G15KT 10SM OVC044 10/M19 A2973 RMK AO1
Loading
Personal Weather Stations






























Interactive Weather Map
Tropical Storm Tracking
New forecast layout! Learn more

10-Day Weather Forecast

Advertisements
Track Severe Weather on mobile